sensor_id;sensor_type;location;lat;lon;timestamp;pressure;altitude;pressure_sealevel;temperature;humidity
42067;BME280;27734;47.028;28.820;2023-08-06T00:01:08;99509.64;;;26.49;52.72
42067;BME280;27734;47.028;28.820;2023-08-06T00:03:50;99503.53;;;26.45;52.81
42067;BME280;27734;47.028;28.820;2023-08-06T00:06:18;99503.67;;;26.42;53.53
42067;BME280;27734;47.028;28.820;2023-08-06T00:08:47;99503.81;;;26.39;53.45
42067;BME280;27734;47.028;28.820;2023-08-06T00:11:15;99499.44;;;26.36;53.41
42067;BME280;27734;47.028;28.820;2023-08-06T00:13:44;99494.13;;;26.35;53.80
42067;BME280;27734;47.028;28.820;2023-08-06T00:16:13;99500.55;;;26.32;53.63
42067;BME280;27734;47.028;28.820;2023-08-06T00:18:41;99491.68;;;26.30;53.64
42067;BME280;27734;47.028;28.820;2023-08-06T00:21:10;99492.69;;;26.28;53.79
42067;BME280;27734;47.028;28.820;2023-08-06T00:23:40;99480.23;;;26.25;54.43
42067;BME280;27734;47.028;28.820;2023-08-06T00:26:09;99483.96;;;26.23;54.30
42067;BME280;27734;47.028;28.820;2023-08-06T00:28:37;99477.83;;;26.19;54.70
42067;BME280;27734;47.028;28.820;2023-08-06T00:31:06;99474.34;;;26.17;54.45
42067;BME280;27734;47.028;28.820;2023-08-06T00:33:35;99478.03;;;26.14;54.50
42067;BME280;27734;47.028;28.820;2023-08-06T00:36:03;99463.80;;;26.12;54.91
42067;BME280;27734;47.028;28.820;2023-08-06T00:38:32;99464.73;;;26.11;55.21
42067;BME280;27734;47.028;28.820;2023-08-06T00:41:00;99461.25;;;26.09;55.41
42067;BME280;27734;47.028;28.820;2023-08-06T00:43:31;99461.38;;;26.06;55.13
42067;BME280;27734;47.028;28.820;2023-08-06T00:46:01;99467.69;;;26.05;55.49
42067;BME280;27734;47.028;28.820;2023-08-06T00:48:30;99467.76;;;26.04;55.49
42067;BME280;27734;47.028;28.820;2023-08-06T00:50:59;99464.34;;;26.00;55.40
42067;BME280;27734;47.028;28.820;2023-08-06T00:53:27;99466.23;;;25.98;56.12
42067;BME280;27734;47.028;28.820;2023-08-06T00:55:56;99463.58;;;25.96;55.70
42067;BME280;27734;47.028;28.820;2023-08-06T00:58:25;99459.20;;;25.94;56.43
42067;BME280;27734;47.028;28.820;2023-08-06T01:00:55;99455.66;;;25.93;56.74
42067;BME280;27734;47.028;28.820;2023-08-06T01:03:23;99456.66;;;25.91;56.22
42067;BME280;27734;47.028;28.820;2023-08-06T01:05:52;99457.72;;;25.87;56.87
42067;BME280;27734;47.028;28.820;2023-08-06T01:08:30;99452.48;;;25.83;56.99
42067;BME280;27734;47.028;28.820;2023-08-06T01:11:14;99452.55;;;25.82;56.99
42067;BME280;27734;47.028;28.820;2023-08-06T01:13:47;99450.95;;;25.78;57.09
42067;BME280;27734;47.028;28.820;2023-08-06T01:16:18;99448.34;;;25.76;57.53
42067;BME280;27734;47.028;28.820;2023-08-06T01:18:48;99449.27;;;25.75;57.09
42067;BME280;27734;47.028;28.820;2023-08-06T01:21:17;99449.33;;;25.74;57.61
42067;BME280;27734;47.028;28.820;2023-08-06T01:23:47;99444.03;;;25.72;57.68
42067;BME280;27734;47.028;28.820;2023-08-06T01:26:22;99436.03;;;25.71;57.60
42067;BME280;27734;47.028;28.820;2023-08-06T01:28:58;99432.62;;;25.67;58.12
42067;BME280;27734;47.028;28.820;2023-08-06T01:31:31;99429.13;;;25.65;57.78
42067;BME280;27734;47.028;28.820;2023-08-06T01:34:01;99435.50;;;25.62;58.29
42067;BME280;27734;47.028;28.820;2023-08-06T01:36:31;99427.64;;;25.58;58.11
42067;BME280;27734;47.028;28.820;2023-08-06T01:39:00;99437.59;;;25.56;58.54
42067;BME280;27734;47.028;28.820;2023-08-06T01:41:28;99434.91;;;25.56;58.56
42067;BME280;27734;47.028;28.820;2023-08-06T01:43:59;99425.02;;;25.56;59.06
42067;BME280;27734;47.028;28.820;2023-08-06T01:46:27;99425.02;;;25.56;58.98
42067;BME280;27734;47.028;28.820;2023-08-06T01:48:56;99417.83;;;25.57;58.81
42067;BME280;27734;47.028;28.820;2023-08-06T01:51:24;99414.15;;;25.59;59.14
42067;BME280;27734;47.028;28.820;2023-08-06T01:53:53;99416.77;;;25.61;59.08
42067;BME280;27734;47.028;28.820;2023-08-06T01:56:24;99406.88;;;25.61;59.28
42067;BME280;27734;47.028;28.820;2023-08-06T01:58:53;99402.47;;;25.60;59.80
42067;BME280;27734;47.028;28.820;2023-08-06T02:01:21;99406.09;;;25.59;59.63
42067;BME280;27734;47.028;28.820;2023-08-06T02:03:50;99394.48;;;25.59;59.70
42067;BME280;27734;47.028;28.820;2023-08-06T02:06:18;99394.55;;;25.57;60.01
42067;BME280;27734;47.028;28.820;2023-08-06T02:08:47;99385.66;;;25.55;60.23
42067;BME280;27734;47.028;28.820;2023-08-06T02:11:17;99381.33;;;25.53;60.06
42067;BME280;27734;47.028;28.820;2023-08-06T02:13:46;99379.70;;;25.48;60.15
42067;BME280;27734;47.028;28.820;2023-08-06T02:16:18;99374.46;;;25.45;60.53
42067;BME280;27734;47.028;28.820;2023-08-06T02:18:47;99374.59;;;25.42;60.17
42067;BME280;27734;47.028;28.820;2023-08-06T02:21:15;99379.17;;;25.40;60.34
42067;BME280;27734;47.028;28.820;2023-08-06T02:23:44;99374.66;;;25.41;60.36
42067;BME280;27734;47.028;28.820;2023-08-06T02:26:12;99377.34;;;25.41;60.69
42067;BME280;27734;47.028;28.820;2023-08-06T02:28:41;99375.59;;;25.40;60.75
42067;BME280;27734;47.028;28.820;2023-08-06T02:31:09;99372.91;;;25.40;60.69
42067;BME280;27734;47.028;28.820;2023-08-06T02:33:39;99373.86;;;25.39;61.26
42067;BME280;27734;47.028;28.820;2023-08-06T02:36:07;99381.98;;;25.37;61.50
42067;BME280;27734;47.028;28.820;2023-08-06T02:38:36;99381.09;;;25.37;61.18
42067;BME280;27734;47.028;28.820;2023-08-06T02:41:04;99383.71;;;25.38;61.32
42067;BME280;27734;47.028;28.820;2023-08-06T02:43:33;99381.98;;;25.37;61.31
42067;BME280;27734;47.028;28.820;2023-08-06T02:46:03;99376.69;;;25.36;61.52
42067;BME280;27734;47.028;28.820;2023-08-06T02:48:31;99382.05;;;25.36;62.03
42067;BME280;27734;47.028;28.820;2023-08-06T02:51:00;99382.91;;;25.36;62.26
42067;BME280;27734;47.028;28.820;2023-08-06T02:53:29;99391.83;;;25.37;62.19
42067;BME280;27734;47.028;28.820;2023-08-06T02:56:00;99394.65;;;25.34;61.99
42067;BME280;27734;47.028;28.820;2023-08-06T02:58:36;99394.71;;;25.32;62.56
42067;BME280;27734;47.028;28.820;2023-08-06T03:01:25;99393.91;;;25.30;62.68
42067;BME280;27734;47.028;28.820;2023-08-06T03:03:57;99400.28;;;25.27;62.29
42067;BME280;27734;47.028;28.820;2023-08-06T03:06:31;99402.06;;;25.27;62.68
42067;BME280;27734;47.028;28.820;2023-08-06T03:09:00;99396.83;;;25.24;63.05
42067;BME280;27734;47.028;28.820;2023-08-06T03:11:31;99401.40;;;25.22;62.59
42067;BME280;27734;47.028;28.820;2023-08-06T03:14:08;99396.83;;;25.24;62.87
42067;BME280;27734;47.028;28.820;2023-08-06T03:16:37;99389.60;;;25.26;62.96
42067;BME280;27734;47.028;28.820;2023-08-06T03:19:06;99397.53;;;25.29;63.05
42067;BME280;27734;47.028;28.820;2023-08-06T03:21:35;99393.91;;;25.30;63.47
42067;BME280;27734;47.028;28.820;2023-08-06T03:24:04;99392.98;;;25.31;63.19
42067;BME280;27734;47.028;28.820;2023-08-06T03:26:34;99386.59;;;25.34;63.06
42067;BME280;27734;47.028;28.820;2023-08-06T03:29:03;99393.78;;;25.33;63.53
42067;BME280;27734;47.028;28.820;2023-08-06T03:31:32;99389.34;;;25.32;63.88
42067;BME280;27734;47.028;28.820;2023-08-06T03:34:01;99387.55;;;25.33;64.00
42067;BME280;27734;47.028;28.820;2023-08-06T03:36:29;99385.73;;;25.33;63.96
42067;BME280;27734;47.028;28.820;2023-08-06T03:38:58;99385.66;;;25.35;63.75
42067;BME280;27734;47.028;28.820;2023-08-06T03:41:27;99374.06;;;25.34;64.22
42067;BME280;27734;47.028;28.820;2023-08-06T03:43:56;99365.25;;;25.30;64.31
42067;BME280;27734;47.028;28.820;2023-08-06T03:46:26;99362.76;;;25.26;64.09
42067;BME280;27734;47.028;28.820;2023-08-06T03:48:55;99358.31;;;25.25;63.99
42067;BME280;27734;47.028;28.820;2023-08-06T03:51:25;99362.69;;;25.27;64.31
42067;BME280;27734;47.028;28.820;2023-08-06T03:53:53;99360.84;;;25.29;64.75
42067;BME280;27734;47.028;28.820;2023-08-06T03:56:22;99350.03;;;25.31;64.30
42067;BME280;27734;47.028;28.820;2023-08-06T03:58:51;99345.66;;;25.28;64.63
42067;BME280;27734;47.028;28.820;2023-08-06T04:01:19;99343.00;;;25.27;64.23
42067;BME280;27734;47.028;28.820;2023-08-06T04:03:48;99347.34;;;25.31;64.19
42067;BME280;27734;47.028;28.820;2023-08-06T04:06:17;99342.97;;;25.28;64.63
42067;BME280;27734;47.028;28.820;2023-08-06T04:08:46;99348.27;;;25.30;64.23
42067;BME280;27734;47.028;28.820;2023-08-06T04:11:14;99341.98;;;25.31;64.30
42067;BME280;27734;47.028;28.820;2023-08-06T04:13:44;99348.27;;;25.30;64.43
42067;BME280;27734;47.028;28.820;2023-08-06T04:16:13;99346.52;;;25.29;63.94
42067;BME280;27734;47.028;28.820;2023-08-06T04:18:42;99350.03;;;25.31;63.84
42067;BME280;27734;47.028;28.820;2023-08-06T04:21:11;99341.84;;;25.34;64.32
42067;BME280;27734;47.028;28.820;2023-08-06T04:23:39;99338.13;;;25.37;63.90
42067;BME280;27734;47.028;28.820;2023-08-06T04:26:09;99338.00;;;25.40;64.03
42067;BME280;27734;47.028;28.820;2023-08-06T04:28:37;99332.70;;;25.38;63.89
42067;BME280;27734;47.028;28.820;2023-08-06T04:31:06;99327.26;;;25.40;63.96
42067;BME280;27734;47.028;28.820;2023-08-06T04:33:35;99320.89;;;25.42;63.83
42067;BME280;27734;47.028;28.820;2023-08-06T04:36:08;99323.51;;;25.44;63.36
42067;BME280;27734;47.028;28.820;2023-08-06T04:38:36;99312.77;;;25.44;63.22
42067;BME280;27734;47.028;28.820;2023-08-06T04:41:06;99322.44;;;25.48;63.53
42067;BME280;27734;47.028;28.820;2023-08-06T04:43:34;99317.87;;;25.50;63.26
42067;BME280;27734;47.028;28.820;2023-08-06T04:46:03;99312.42;;;25.52;62.88
42067;BME280;27734;47.028;28.820;2023-08-06T04:48:32;99311.36;;;25.56;62.69
42067;BME280;27734;47.028;28.820;2023-08-06T04:51:00;99316.73;;;25.56;62.24
42067;BME280;27734;47.028;28.820;2023-08-06T04:53:29;99314.91;;;25.56;62.60
42067;BME280;27734;47.028;28.820;2023-08-06T04:55:57;99313.91;;;25.59;62.56
42067;BME280;27734;47.028;28.820;2023-08-06T04:58:26;99311.08;;;25.62;62.28
42067;BME280;27734;47.028;28.820;2023-08-06T05:00:54;99313.77;;;25.62;61.82
42067;BME280;27734;47.028;28.820;2023-08-06T05:03:23;99314.70;;;25.61;62.06
42067;BME280;27734;47.028;28.820;2023-08-06T05:05:51;99309.33;;;25.61;62.22
42067;BME280;27734;47.028;28.820;2023-08-06T05:08:20;99309.19;;;25.64;62.11
42067;BME280;27734;47.028;28.820;2023-08-06T05:10:49;99304.54;;;25.68;61.78
42067;BME280;27734;47.028;28.820;2023-08-06T05:13:17;99298.16;;;25.70;62.20
42067;BME280;27734;47.028;28.820;2023-08-06T05:15:46;99292.66;;;25.73;61.67
42067;BME280;27734;47.028;28.820;2023-08-06T05:18:14;99287.06;;;25.78;62.06
42067;BME280;27734;47.028;28.820;2023-08-06T05:20:43;99283.27;;;25.82;61.83
42067;BME280;27734;47.028;28.820;2023-08-06T05:23:12;99278.66;;;25.86;61.86
42067;BME280;27734;47.028;28.820;2023-08-06T05:25:40;99281.98;;;25.91;61.43
42067;BME280;27734;47.028;28.820;2023-08-06T05:28:09;99284.38;;;25.97;62.06
42067;BME280;27734;47.028;28.820;2023-08-06T05:30:40;99286.74;;;26.05;61.88
42067;BME280;27734;47.028;28.820;2023-08-06T05:33:09;99287.31;;;26.11;61.71
42067;BME280;27734;47.028;28.820;2023-08-06T05:35:37;99282.69;;;26.15;61.80
42067;BME280;27734;47.028;28.820;2023-08-06T05:38:06;99283.40;;;26.18;62.12
42067;BME280;27734;47.028;28.820;2023-08-06T05:40:35;99274.25;;;26.23;62.00
42067;BME280;27734;47.028;28.820;2023-08-06T05:43:03;99279.41;;;26.27;61.99
42067;BME280;27734;47.028;28.820;2023-08-06T05:45:32;99280.91;;;26.33;61.78
42067;BME280;27734;47.028;28.820;2023-08-06T05:48:00;99272.61;;;26.37;61.66
42067;BME280;27734;47.028;28.820;2023-08-06T05:50:29;99277.62;;;26.45;61.77
42067;BME280;27734;47.028;28.820;2023-08-06T05:52:57;99268.38;;;26.51;61.80
42067;BME280;27734;47.028;28.820;2023-08-06T05:55:32;99274.32;;;26.58;62.04
42067;BME280;27734;47.028;28.820;2023-08-06T05:58:00;99273.16;;;26.63;62.67
42067;BME280;27734;47.028;28.820;2023-08-06T06:00:29;99273.89;;;26.67;62.51
42067;BME280;27734;47.028;28.820;2023-08-06T06:02:57;99270.97;;;26.71;62.25
42067;BME280;27734;47.028;28.820;2023-08-06T06:05:26;99270.89;;;26.73;62.76
42067;BME280;27734;47.028;28.820;2023-08-06T06:07:54;99266.14;;;26.78;62.79
42067;BME280;27734;47.028;28.820;2023-08-06T06:10:23;99262.36;;;26.82;62.89
42067;BME280;27734;47.028;28.820;2023-08-06T06:12:52;99259.43;;;26.87;62.88
42067;BME280;27734;47.028;28.820;2023-08-06T06:15:20;99266.22;;;26.94;63.07
42067;BME280;27734;47.028;28.820;2023-08-06T06:17:49;99263.13;;;27.02;63.11
42067;BME280;27734;47.028;28.820;2023-08-06T06:20:17;99254.98;;;27.03;63.30
42067;BME280;27734;47.028;28.820;2023-08-06T06:22:46;99255.55;;;27.10;63.34
42067;BME280;27734;47.028;28.820;2023-08-06T06:25:14;99249.84;;;27.16;63.15
42067;BME280;27734;47.028;28.820;2023-08-06T06:27:43;99236.14;;;27.21;62.96
42067;BME280;27734;47.028;28.820;2023-08-06T06:30:12;99241.98;;;27.29;63.21
42067;BME280;27734;47.028;28.820;2023-08-06T06:32:42;99237.32;;;27.33;63.03
42067;BME280;27734;47.028;28.820;2023-08-06T06:35:10;99236.22;;;27.37;62.83
42067;BME280;27734;47.028;28.820;2023-08-06T06:37:39;99241.35;;;27.41;63.10
42067;BME280;27734;47.028;28.820;2023-08-06T06:40:09;99241.11;;;27.46;62.98
42067;BME280;27734;47.028;28.820;2023-08-06T06:42:38;99240.86;;;27.51;62.80
42067;BME280;27734;47.028;28.820;2023-08-06T06:45:10;99235.99;;;27.57;63.06
42067;BME280;27734;47.028;28.820;2023-08-06T06:47:38;99230.10;;;27.67;63.01
42067;BME280;27734;47.028;28.820;2023-08-06T06:50:09;99234.98;;;27.76;63.13
42067;BME280;27734;47.028;28.820;2023-08-06T06:52:37;99237.00;;;27.88;62.86
42067;BME280;27734;47.028;28.820;2023-08-06T06:55:07;99232.92;;;27.97;63.03
42067;BME280;27734;47.028;28.820;2023-08-06T06:57:38;99223.46;;;28.06;62.92
42067;BME280;27734;47.028;28.820;2023-08-06T07:00:08;99225.45;;;28.18;62.66
42067;BME280;27734;47.028;28.820;2023-08-06T07:02:37;99223.98;;;28.28;62.82
42067;BME280;27734;47.028;28.820;2023-08-06T07:05:07;99208.03;;;28.40;62.34
42067;BME280;27734;47.028;28.820;2023-08-06T07:07:37;99215.23;;;28.55;62.12
42067;BME280;27734;47.028;28.820;2023-08-06T07:10:07;99225.14;;;28.71;61.65
42067;BME280;27734;47.028;28.820;2023-08-06T07:12:36;99221.53;;;28.86;61.59
42067;BME280;27734;47.028;28.820;2023-08-06T07:15:07;99214.49;;;28.98;61.61
42067;BME280;27734;47.028;28.820;2023-08-06T07:17:36;99214.60;;;29.11;60.94
42067;BME280;27734;47.028;28.820;2023-08-06T07:20:07;99210.23;;;29.24;60.65
42067;BME280;27734;47.028;28.820;2023-08-06T07:22:36;99211.41;;;29.34;61.03
42067;BME280;27734;47.028;28.820;2023-08-06T07:25:05;99198.84;;;29.48;60.40
42067;BME280;27734;47.028;28.820;2023-08-06T07:27:34;99206.06;;;29.62;59.78
42067;BME280;27734;47.028;28.820;2023-08-06T07:30:04;99206.05;;;29.76;59.80
42067;BME280;27734;47.028;28.820;2023-08-06T07:32:33;99198.63;;;29.94;59.21
42067;BME280;27734;47.028;28.820;2023-08-06T07:35:01;99197.41;;;30.13;58.80
42067;BME280;27734;47.028;28.820;2023-08-06T07:37:30;99198.22;;;30.27;58.81
42067;BME280;27734;47.028;28.820;2023-08-06T07:39:59;99195.71;;;30.39;58.28
42067;BME280;27734;47.028;28.820;2023-08-06T07:42:27;99199.41;;;30.51;57.76
42067;BME280;27734;47.028;28.820;2023-08-06T07:44:57;99193.37;;;30.60;57.50
42067;BME280;27734;47.028;28.820;2023-08-06T07:47:26;99201.08;;;30.66;56.93
42067;BME280;27734;47.028;28.820;2023-08-06T07:49:54;99204.01;;;30.76;56.96
42067;BME280;27734;47.028;28.820;2023-08-06T07:52:23;99210.11;;;30.92;56.49
42067;BME280;27734;47.028;28.820;2023-08-06T07:54:51;99206.27;;;31.09;56.33
42067;BME280;27734;47.028;28.820;2023-08-06T07:57:22;99203.23;;;31.27;55.74
42067;BME280;27734;47.028;28.820;2023-08-06T07:59:51;99202.25;;;31.41;54.98
42067;BME280;27734;47.028;28.820;2023-08-06T08:02:21;99201.37;;;31.53;54.82
42067;BME280;27734;47.028;28.820;2023-08-06T08:04:53;99200.10;;;31.59;54.47
42067;BME280;27734;47.028;28.820;2023-08-06T08:07:21;99198.10;;;31.74;54.21
42067;BME280;27734;47.028;28.820;2023-08-06T08:09:50;99189.70;;;31.89;53.81
42067;BME280;27734;47.028;28.820;2023-08-06T08:12:18;99192.95;;;31.95;53.67
42067;BME280;27734;47.028;28.820;2023-08-06T08:14:47;99198.55;;;32.04;53.14
42067;BME280;27734;47.028;28.820;2023-08-06T08:17:15;99188.53;;;32.18;52.61
42067;BME280;27734;47.028;28.820;2023-08-06T08:19:44;99175.78;;;32.31;51.38
42067;BME280;27734;47.028;28.820;2023-08-06T08:22:13;99178.84;;;32.51;51.62
42067;BME280;27734;47.028;28.820;2023-08-06T08:24:41;99179.52;;;32.66;51.17
42067;BME280;27734;47.028;28.820;2023-08-06T08:27:10;99173.23;;;32.65;50.57
42067;BME280;27734;47.028;28.820;2023-08-06T08:29:39;99171.02;;;32.70;50.53
42067;BME280;27734;47.028;28.820;2023-08-06T08:32:07;99169.45;;;32.79;49.13
42067;BME280;27734;47.028;28.820;2023-08-06T08:34:36;99169.09;;;32.84;49.61
42067;BME280;27734;47.028;28.820;2023-08-06T08:37:05;99166.02;;;32.88;49.40
42067;BME280;27734;47.028;28.820;2023-08-06T08:39:34;99163.92;;;33.03;49.31
42067;BME280;27734;47.028;28.820;2023-08-06T08:42:03;99159.17;;;33.18;48.59
42067;BME280;27734;47.028;28.820;2023-08-06T08:44:32;99148.79;;;33.23;48.26
42067;BME280;27734;47.028;28.820;2023-08-06T08:47:01;99145.20;;;33.34;48.12
42067;BME280;27734;47.028;28.820;2023-08-06T08:49:30;99146.33;;;33.43;47.88
42067;BME280;27734;47.028;28.820;2023-08-06T08:52:00;99130.75;;;33.45;47.67
42067;BME280;27734;47.028;28.820;2023-08-06T08:54:31;99134.95;;;33.49;47.47
42067;BME280;27734;47.028;28.820;2023-08-06T08:57:00;99132.22;;;33.60;47.37
42067;BME280;27734;47.028;28.820;2023-08-06T08:59:30;99130.09;;;33.64;46.97
42067;BME280;27734;47.028;28.820;2023-08-06T09:01:59;99130.36;;;33.72;46.72
42067;BME280;27734;47.028;28.820;2023-08-06T09:04:29;99122.20;;;33.72;46.08
42067;BME280;27734;47.028;28.820;2023-08-06T09:07:00;99116.37;;;33.88;45.55
42067;BME280;27734;47.028;28.820;2023-08-06T09:09:33;99116.84;;;33.93;45.31
42067;BME280;27734;47.028;28.820;2023-08-06T09:12:03;99116.58;;;33.96;44.92
42067;BME280;27734;47.028;28.820;2023-08-06T09:14:35;99101.22;;;34.07;44.47
42067;BME280;27734;47.028;28.820;2023-08-06T09:17:04;99107.00;;;34.13;43.69
42067;BME280;27734;47.028;28.820;2023-08-06T09:19:33;99101.53;;;34.25;43.17
42067;BME280;27734;47.028;28.820;2023-08-06T09:22:02;99096.15;;;34.34;43.35
42067;BME280;27734;47.028;28.820;2023-08-06T09:24:30;99098.09;;;34.44;42.51
42067;BME280;27734;47.028;28.820;2023-08-06T09:27:03;99097.09;;;34.45;42.03
42067;BME280;27734;47.028;28.820;2023-08-06T09:29:32;99082.69;;;34.54;41.33
42067;BME280;27734;47.028;28.820;2023-08-06T09:32:01;99084.88;;;34.60;40.93
42067;BME280;27734;47.028;28.820;2023-08-06T09:34:29;99087.92;;;34.67;40.10
42067;BME280;27734;47.028;28.820;2023-08-06T09:36:58;99084.42;;;34.76;39.98
42067;BME280;27734;47.028;28.820;2023-08-06T09:39:28;99081.16;;;34.82;39.79
42067;BME280;27734;47.028;28.820;2023-08-06T09:41:58;99085.89;;;34.80;39.57
42067;BME280;27734;47.028;28.820;2023-08-06T09:44:28;99079.62;;;34.68;39.26
42067;BME280;27734;47.028;28.820;2023-08-06T09:46:57;99065.41;;;34.65;38.78
42067;BME280;27734;47.028;28.820;2023-08-06T09:49:28;99059.83;;;34.66;39.19
42067;BME280;27734;47.028;28.820;2023-08-06T09:51:57;99057.28;;;34.74;38.37
42067;BME280;27734;47.028;28.820;2023-08-06T09:54:28;99049.45;;;34.81;38.02
42067;BME280;27734;47.028;28.820;2023-08-06T09:56:58;99052.39;;;34.89;38.06
42067;BME280;27734;47.028;28.820;2023-08-06T09:59:27;99044.11;;;35.01;37.56
42067;BME280;27734;47.028;28.820;2023-08-06T10:01:55;99043.42;;;35.08;37.02
42067;BME280;27734;47.028;28.820;2023-08-06T10:04:24;99032.95;;;35.14;36.68
42067;BME280;27734;47.028;28.820;2023-08-06T10:06:54;99035.55;;;35.15;36.06
42067;BME280;27734;47.028;28.820;2023-08-06T10:09:22;99034.26;;;35.09;35.44
42067;BME280;27734;47.028;28.820;2023-08-06T10:11:52;99017.48;;;35.14;35.37
42067;BME280;27734;47.028;28.820;2023-08-06T10:14:24;99008.02;;;35.18;35.65
42067;BME280;27734;47.028;28.820;2023-08-06T10:16:55;99000.72;;;35.19;35.44
42067;BME280;27734;47.028;28.820;2023-08-06T10:19:25;98999.91;;;35.28;35.35
42067;BME280;27734;47.028;28.820;2023-08-06T10:22:11;98996.02;;;35.31;35.19
42067;BME280;27734;47.028;28.820;2023-08-06T10:24:50;98997.77;;;35.41;34.93
42067;BME280;27734;47.028;28.820;2023-08-06T10:27:29;98990.44;;;35.42;34.58
42067;BME280;27734;47.028;28.820;2023-08-06T10:30:21;98988.31;;;35.45;34.79
42067;BME280;27734;47.028;28.820;2023-08-06T10:32:51;98988.31;;;35.45;34.55
42067;BME280;27734;47.028;28.820;2023-08-06T10:35:30;98985.44;;;35.47;34.67
42067;BME280;27734;47.028;28.820;2023-08-06T10:38:00;98995.19;;;35.50;34.54
42067;BME280;27734;47.028;28.820;2023-08-06T10:40:31;98994.05;;;35.52;34.30
42067;BME280;27734;47.028;28.820;2023-08-06T10:43:01;98986.72;;;35.43;34.04
42067;BME280;27734;47.028;28.820;2023-08-06T10:45:30;98983.98;;;35.33;34.26
42067;BME280;27734;47.028;28.820;2023-08-06T10:48:02;98973.89;;;35.24;34.32
42067;BME280;27734;47.028;28.820;2023-08-06T10:50:31;98971.05;;;35.25;34.22
42067;BME280;27734;47.028;28.820;2023-08-06T10:53:04;98977.69;;;35.42;33.87
42067;BME280;27734;47.028;28.820;2023-08-06T10:55:34;98975.10;;;35.51;33.55
42067;BME280;27734;47.028;28.820;2023-08-06T10:58:03;98979.00;;;35.58;33.33
42067;BME280;27734;47.028;28.820;2023-08-06T11:00:34;98968.08;;;35.58;33.03
42067;BME280;27734;47.028;28.820;2023-08-06T11:03:04;98963.91;;;35.63;33.23
42067;BME280;27734;47.028;28.820;2023-08-06T11:05:32;98966.48;;;35.65;33.05
42067;BME280;27734;47.028;28.820;2023-08-06T11:08:01;98954.44;;;35.68;32.82
42067;BME280;27734;47.028;28.820;2023-08-06T11:10:32;98954.45;;;35.77;32.44
42067;BME280;27734;47.028;28.820;2023-08-06T11:13:02;98947.14;;;35.88;32.11
42067;BME280;27734;47.028;28.820;2023-08-06T11:15:31;98932.03;;;35.93;32.31
42067;BME280;27734;47.028;28.820;2023-08-06T11:18:00;98927.16;;;35.97;32.22
42067;BME280;27734;47.028;28.820;2023-08-06T11:20:30;98933.05;;;35.92;32.15
42067;BME280;27734;47.028;28.820;2023-08-06T11:22:59;98933.20;;;35.91;32.29
42067;BME280;27734;47.028;28.820;2023-08-06T11:25:28;98913.36;;;35.89;31.74
42067;BME280;27734;47.028;28.820;2023-08-06T11:27:57;98916.53;;;35.84;32.01
42067;BME280;27734;47.028;28.820;2023-08-06T11:30:27;98917.13;;;35.88;32.22
42067;BME280;27734;47.028;28.820;2023-08-06T11:32:57;98912.37;;;35.90;31.74
42067;BME280;27734;47.028;28.820;2023-08-06T11:35:26;98894.85;;;35.92;32.19
42067;BME280;27734;47.028;28.820;2023-08-06T11:37:54;98896.99;;;35.98;32.02
42067;BME280;27734;47.028;28.820;2023-08-06T11:40:23;98889.51;;;36.01;31.71
42067;BME280;27734;47.028;28.820;2023-08-06T11:42:52;98891.39;;;36.00;31.88
42067;BME280;27734;47.028;28.820;2023-08-06T11:45:23;98886.78;;;36.01;31.83
42067;BME280;27734;47.028;28.820;2023-08-06T11:47:52;98882.61;;;36.06;31.89
42067;BME280;27734;47.028;28.820;2023-08-06T11:50:25;98875.83;;;36.10;31.92
42067;BME280;27734;47.028;28.820;2023-08-06T11:52:57;98879.14;;;36.14;32.02
42067;BME280;27734;47.028;28.820;2023-08-06T11:55:25;98871.80;;;36.14;31.57
42067;BME280;27734;47.028;28.820;2023-08-06T11:57:56;98873.39;;;36.07;32.08
42067;BME280;27734;47.028;28.820;2023-08-06T12:00:25;98868.96;;;36.06;32.20
42067;BME280;27734;47.028;28.820;2023-08-06T12:02:54;98865.50;;;36.04;32.33
42067;BME280;27734;47.028;28.820;2023-08-06T12:05:28;98855.32;;;35.96;32.20
42067;BME280;27734;47.028;28.820;2023-08-06T12:07:58;98855.32;;;35.96;32.21
42067;BME280;27734;47.028;28.820;2023-08-06T12:10:28;98854.44;;;36.06;32.17
42067;BME280;27734;47.028;28.820;2023-08-06T12:12:57;98858.15;;;36.14;32.20
42067;BME280;27734;47.028;28.820;2023-08-06T12:15:25;98847.63;;;36.20;31.91
42067;BME280;27734;47.028;28.820;2023-08-06T12:17:54;98834.86;;;36.20;32.11
42067;BME280;27734;47.028;28.820;2023-08-06T12:20:23;98834.86;;;36.20;31.81
42067;BME280;27734;47.028;28.820;2023-08-06T12:22:51;98823.36;;;36.16;31.61
42067;BME280;27734;47.028;28.820;2023-08-06T12:25:20;98827.13;;;36.15;31.50
42067;BME280;27734;47.028;28.820;2023-08-06T12:27:48;98822.81;;;36.13;31.41
42067;BME280;27734;47.028;28.820;2023-08-06T12:30:17;98818.65;;;36.09;31.35
42067;BME280;27734;47.028;28.820;2023-08-06T12:32:46;98815.92;;;36.09;31.46
42067;BME280;27734;47.028;28.820;2023-08-06T12:35:14;98805.88;;;36.09;31.56
42067;BME280;27734;47.028;28.820;2023-08-06T12:37:43;98808.02;;;36.15;31.41
42067;BME280;27734;47.028;28.820;2023-08-06T12:40:13;98796.36;;;36.13;30.86
42067;BME280;27734;47.028;28.820;2023-08-06T12:42:42;98795.41;;;36.05;31.13
42067;BME280;27734;47.028;28.820;2023-08-06T12:45:10;98794.69;;;36.03;31.37
42067;BME280;27734;47.028;28.820;2023-08-06T12:47:39;98785.64;;;36.02;31.15
42067;BME280;27734;47.028;28.820;2023-08-06T12:50:10;98779.64;;;35.98;31.16
42067;BME280;27734;47.028;28.820;2023-08-06T12:52:39;98790.70;;;35.97;31.11
42067;BME280;27734;47.028;28.820;2023-08-06T12:55:08;98777.20;;;35.95;31.20
42067;BME280;27734;47.028;28.820;2023-08-06T12:57:37;98769.47;;;35.91;31.20
42067;BME280;27734;47.028;28.820;2023-08-06T13:00:08;98769.77;;;35.88;31.54
42067;BME280;27734;47.028;28.820;2023-08-06T13:02:36;98762.73;;;35.85;31.48